createdAt,value
2019-01-11T00:00:50.748Z,2.60
2019-01-11T00:03:19.418Z,4.47
2019-01-11T00:05:48.058Z,2.30
2019-01-11T00:08:16.770Z,6.00
2019-01-11T00:10:45.398Z,2.77
2019-01-11T00:13:14.627Z,2.73
2019-01-11T00:15:43.219Z,3.70
2019-01-11T00:18:11.869Z,5.30
2019-01-11T00:20:40.476Z,3.07
2019-01-11T00:23:09.063Z,4.10
2019-01-11T00:25:37.654Z,3.37
2019-01-11T00:28:06.213Z,2.60
2019-01-11T00:30:37.155Z,4.20
2019-01-11T00:33:06.137Z,2.70
2019-01-11T00:35:34.731Z,2.00
2019-01-11T00:38:03.685Z,3.33
2019-01-11T00:40:32.356Z,3.43
2019-01-11T00:43:01.262Z,3.37
2019-01-11T00:45:29.847Z,3.60
2019-01-11T00:47:58.494Z,3.63
2019-01-11T00:50:27.287Z,3.63
2019-01-11T00:52:55.842Z,3.07
2019-01-11T00:55:24.462Z,4.13
2019-01-11T00:57:53.071Z,4.17
2019-01-11T01:00:24.099Z,7.00
2019-01-11T01:02:52.928Z,4.93
2019-01-11T01:05:21.569Z,3.77
2019-01-11T01:07:50.369Z,4.70
2019-01-11T01:10:20.845Z,4.07
2019-01-11T01:12:49.559Z,4.37
2019-01-11T01:15:18.753Z,6.23
2019-01-11T01:17:47.763Z,6.07
2019-01-11T01:20:17.712Z,4.00
2019-01-11T01:22:46.446Z,4.97
2019-01-11T01:25:15.379Z,4.37
2019-01-11T01:27:44.063Z,5.07
2019-01-11T01:30:18.535Z,6.40
2019-01-11T01:32:47.198Z,5.60
2019-01-11T01:35:15.855Z,6.13
2019-01-11T01:37:44.998Z,7.97
2019-01-11T01:40:17.702Z,5.33
2019-01-11T01:42:46.577Z,5.17
2019-01-11T01:45:16.909Z,5.43
2019-01-11T01:47:45.737Z,5.60
2019-01-11T01:50:14.860Z,5.53
2019-01-11T01:52:43.539Z,10.43
2019-01-11T01:55:14.260Z,6.90
2019-01-11T01:57:42.882Z,16.77
2019-01-11T02:00:17.457Z,8.70
2019-01-11T02:02:47.448Z,8.83
2019-01-11T02:05:16.940Z,9.57
2019-01-11T02:07:45.615Z,7.47
2019-01-11T02:10:15.141Z,11.40
2019-01-11T02:12:43.728Z,8.07
2019-01-11T02:15:13.041Z,9.73
2019-01-11T02:17:41.828Z,10.00
2019-01-11T02:20:17.848Z,9.50
2019-01-11T02:22:46.561Z,12.27
2019-01-11T02:25:15.275Z,9.07
2019-01-11T02:27:43.996Z,12.93
2019-01-11T02:30:18.045Z,13.43
2019-01-11T02:32:52.541Z,17.03
2019-01-11T02:35:17.370Z,10.23
2019-01-11T02:37:46.026Z,11.93
2019-01-11T02:40:14.959Z,12.57
2019-01-11T02:42:43.642Z,10.37
2019-01-11T02:45:15.291Z,13.13
2019-01-11T02:47:43.964Z,13.53
2019-01-11T02:50:13.524Z,15.17
2019-01-11T02:52:42.311Z,12.53
2019-01-11T02:55:10.989Z,15.80
2019-01-11T02:57:39.661Z,14.37
2019-01-11T03:00:14.162Z,15.50
2019-01-11T03:02:42.852Z,17.67
2019-01-11T03:05:11.983Z,19.80
2019-01-11T03:07:41.326Z,16.70
2019-01-11T03:10:12.980Z,15.40
2019-01-11T03:12:41.589Z,23.93
2019-01-11T03:15:11.633Z,17.57
2019-01-11T03:17:40.378Z,21.10
2019-01-11T03:20:11.781Z,18.87
2019-01-11T03:22:40.393Z,19.20
2019-01-11T03:25:11.118Z,18.97
2019-01-11T03:27:39.711Z,16.80
2019-01-11T03:30:11.944Z,22.20
2019-01-11T03:32:40.496Z,24.00
2019-01-11T03:35:13.847Z,21.97
2019-01-11T03:37:43.115Z,25.93
2019-01-11T03:40:14.812Z,21.90
2019-01-11T03:42:43.516Z,29.70
2019-01-11T03:45:15.086Z,22.50
2019-01-11T03:47:43.754Z,30.83
2019-01-11T03:50:14.867Z,29.00
2019-01-11T03:52:43.479Z,29.57
2019-01-11T03:55:13.683Z,24.27
2019-01-11T03:57:42.375Z,22.23
2019-01-11T04:00:20.064Z,23.57
2019-01-11T04:02:48.783Z,24.03
2019-01-11T04:05:17.798Z,24.40
2019-01-11T04:07:46.517Z,24.30
2019-01-11T04:10:20.584Z,24.50
2019-01-11T04:12:49.691Z,25.50
2019-01-11T04:15:20.236Z,24.17
2019-01-11T04:17:51.413Z,23.53
2019-01-11T04:20:19.969Z,23.23
2019-01-11T04:22:53.017Z,23.73
2019-01-11T04:25:23.350Z,26.77
2019-01-11T04:27:52.699Z,25.27
2019-01-11T04:30:21.820Z,28.40
2019-01-11T04:32:50.566Z,23.03
2019-01-11T04:35:19.321Z,30.17
2019-01-11T04:37:48.032Z,27.03
2019-01-11T04:40:17.280Z,27.97
2019-01-11T04:42:45.855Z,28.17
2019-01-11T04:45:14.593Z,28.63
2019-01-11T04:47:43.267Z,25.40
2019-01-11T04:50:14.517Z,30.97
2019-01-11T04:52:43.125Z,30.77
2019-01-11T04:55:12.036Z,22.60
2019-01-11T04:57:40.624Z,27.73
2019-01-11T05:00:20.550Z,26.07
2019-01-11T05:02:49.194Z,25.37
2019-01-11T05:05:18.077Z,22.77
2019-01-11T05:07:46.675Z,24.70
2019-01-11T05:10:17.220Z,21.53
2019-01-11T05:12:45.798Z,22.27
2019-01-11T05:15:14.482Z,21.10
2019-01-11T05:17:43.130Z,24.40
2019-01-11T05:20:16.792Z,22.60
2019-01-11T05:22:43.619Z,20.17
2019-01-11T05:25:12.593Z,25.27
2019-01-11T05:27:41.171Z,22.13
2019-01-11T05:30:12.880Z,20.43
2019-01-11T05:32:41.529Z,19.63
2019-01-11T05:35:10.653Z,20.30
2019-01-11T05:37:39.296Z,17.80
2019-01-11T05:40:11.097Z,19.40
2019-01-11T05:42:40.081Z,19.93
2019-01-11T05:45:09.489Z,20.17
2019-01-11T05:47:38.093Z,18.80
2019-01-11T05:50:09.751Z,22.30
2019-01-11T05:52:38.423Z,17.53
2019-01-11T05:55:09.706Z,18.90
2019-01-11T05:57:39.903Z,15.43
2019-01-11T06:00:10.659Z,17.90
2019-01-11T06:02:39.235Z,20.40
2019-01-11T06:05:09.479Z,20.20
2019-01-11T06:07:39.550Z,16.67
2019-01-11T06:10:11.360Z,18.10
2019-01-11T06:12:40.261Z,19.80
2019-01-11T06:15:09.432Z,19.30
2019-01-11T06:17:38.012Z,16.67
2019-01-11T06:20:09.662Z,15.97
2019-01-11T06:22:38.299Z,19.77
2019-01-11T06:25:07.044Z,17.63
2019-01-11T06:27:35.743Z,17.10
2019-01-11T06:30:10.599Z,17.90
2019-01-11T06:32:39.186Z,15.47
2019-01-11T06:35:08.180Z,15.80
2019-01-11T06:37:36.760Z,16.00
2019-01-11T06:40:08.356Z,18.13
2019-01-11T06:42:36.893Z,15.50
2019-01-11T06:45:08.254Z,16.80
2019-01-11T06:47:37.022Z,13.30
2019-01-11T06:50:16.543Z,13.70
2019-01-11T06:52:45.099Z,14.83
2019-01-11T06:55:13.845Z,14.97
2019-01-11T06:57:42.429Z,14.73
2019-01-11T07:00:18.656Z,14.67
2019-01-11T07:02:47.337Z,15.23
2019-01-11T07:05:15.907Z,12.87
2019-01-11T07:07:44.956Z,14.10
2019-01-11T07:10:19.393Z,14.60
2019-01-11T07:12:48.135Z,18.17
2019-01-11T07:15:17.042Z,13.20
2019-01-11T07:17:45.647Z,13.30
2019-01-11T07:20:15.175Z,13.37
2019-01-11T07:22:43.763Z,15.60
2019-01-11T07:25:14.187Z,14.00
2019-01-11T07:27:44.443Z,12.13
2019-01-11T07:30:15.219Z,13.43
2019-01-11T07:32:44.046Z,15.63
2019-01-11T07:35:13.314Z,11.93
2019-01-11T07:37:41.946Z,12.90
2019-01-11T07:40:12.247Z,11.47
2019-01-11T07:42:40.848Z,10.97
2019-01-11T07:45:13.626Z,12.10
2019-01-11T07:47:42.246Z,10.83
2019-01-11T07:50:11.453Z,11.37
2019-01-11T07:52:40.285Z,12.50
2019-01-11T07:55:10.442Z,12.13
2019-01-11T07:57:39.058Z,10.30
2019-01-11T08:00:10.867Z,10.30
2019-01-11T08:02:39.650Z,9.87
2019-01-11T08:05:09.083Z,12.17
2019-01-11T08:07:37.689Z,8.87
2019-01-11T08:10:09.389Z,10.33
2019-01-11T08:12:38.361Z,11.70
2019-01-11T08:15:12.558Z,9.27
2019-01-11T08:17:41.226Z,8.17
2019-01-11T08:20:09.971Z,7.87
2019-01-11T08:22:43.047Z,8.60
2019-01-11T08:25:13.656Z,9.93
2019-01-11T08:27:42.654Z,9.17
2019-01-11T08:30:17.762Z,10.33
2019-01-11T08:32:46.366Z,11.70
2019-01-11T08:35:15.766Z,8.67
2019-01-11T08:37:44.455Z,12.40
2019-01-11T08:40:13.368Z,10.83
2019-01-11T08:42:41.965Z,13.87
2019-01-11T08:45:13.905Z,12.07
2019-01-11T08:47:42.658Z,14.43
2019-01-11T08:50:17.537Z,12.67
2019-01-11T08:52:46.528Z,11.37
2019-01-11T08:55:15.123Z,12.23
2019-01-11T08:57:43.874Z,11.53
2019-01-11T09:00:15.145Z,12.53
2019-01-11T09:02:43.824Z,13.90
2019-01-11T09:05:12.407Z,19.27
2019-01-11T09:07:41.031Z,18.13
2019-01-11T09:10:22.810Z,15.20
2019-01-11T09:12:48.834Z,18.90
2019-01-11T09:15:17.483Z,18.23
2019-01-11T09:18:02.761Z,18.93
2019-01-11T09:20:31.436Z,22.60
2019-01-11T09:23:00.469Z,17.27
2019-01-11T09:25:29.041Z,18.10
2019-01-11T09:27:57.643Z,22.70
2019-01-11T09:30:26.216Z,22.53
2019-01-11T09:32:54.971Z,19.40
2019-01-11T09:35:24.146Z,18.10
2019-01-11T09:37:53.342Z,16.87
2019-01-11T09:40:22.036Z,24.20
2019-01-11T09:42:50.982Z,19.30
2019-01-11T09:45:19.652Z,21.83
2019-01-11T09:47:48.222Z,24.97
2019-01-11T09:50:16.828Z,26.17
2019-01-11T09:52:45.410Z,28.03
2019-01-11T09:55:14.335Z,28.97
2019-01-11T09:57:44.812Z,26.23
2019-01-11T10:00:19.704Z,30.17
2019-01-11T10:02:50.203Z,29.73
2019-01-11T10:05:18.895Z,33.03
2019-01-11T10:07:47.531Z,40.80
2019-01-11T10:10:16.276Z,34.80
2019-01-11T10:12:45.985Z,39.40
2019-01-11T10:15:16.268Z,36.57
2019-01-11T10:17:46.641Z,43.60
2019-01-11T10:20:15.757Z,39.47
2019-01-11T10:22:44.357Z,42.40
2019-01-11T10:25:13.127Z,44.20
2019-01-11T10:27:41.703Z,39.57
2019-01-11T10:30:18.463Z,38.50
2019-01-11T10:32:47.357Z,39.00
2019-01-11T10:35:16.013Z,38.40
2019-01-11T10:37:45.038Z,32.80
2019-01-11T10:40:16.903Z,38.00
2019-01-11T10:42:45.983Z,45.43
2019-01-11T10:45:20.090Z,41.20
2019-01-11T10:47:48.672Z,37.73
2019-01-11T10:50:17.935Z,36.87
2019-01-11T10:52:46.662Z,37.00
2019-01-11T10:55:16.630Z,33.80
2019-01-11T10:57:45.737Z,28.87
2019-01-11T11:00:20.791Z,33.27
2019-01-11T11:02:50.639Z,29.27
2019-01-11T11:05:19.858Z,24.77
2019-01-11T11:07:48.886Z,24.20
2019-01-11T11:10:17.627Z,21.03
2019-01-11T11:12:46.619Z,25.77
2019-01-11T11:15:17.625Z,19.00
2019-01-11T11:17:46.849Z,23.83
2019-01-11T11:20:17.396Z,22.83
2019-01-11T11:22:46.124Z,22.87
2019-01-11T11:25:19.750Z,21.03
2019-01-11T11:27:48.776Z,25.57
2019-01-11T11:30:19.106Z,22.87
2019-01-11T11:32:52.037Z,20.80
2019-01-11T11:35:20.725Z,23.37
2019-01-11T11:37:49.436Z,25.20
2019-01-11T11:40:18.127Z,19.33
2019-01-11T11:42:46.875Z,21.33
2019-01-11T11:45:16.108Z,21.27
2019-01-11T11:47:44.728Z,21.80
2019-01-11T11:50:13.540Z,22.73
2019-01-11T11:52:45.163Z,26.50
2019-01-11T11:55:13.740Z,21.20
2019-01-11T11:57:42.363Z,15.30
2019-01-11T12:00:16.766Z,16.87
2019-01-11T12:02:45.329Z,17.37
2019-01-11T12:05:14.043Z,14.57
2019-01-11T12:07:42.729Z,17.40
2019-01-11T12:10:13.855Z,17.90
2019-01-11T12:12:42.532Z,18.03
2019-01-11T12:15:13.055Z,17.40
2019-01-11T12:17:41.823Z,17.83
2019-01-11T12:20:13.474Z,21.83
2019-01-11T12:22:42.150Z,23.17
2019-01-11T12:25:10.737Z,22.33
2019-01-11T12:27:40.413Z,20.60
2019-01-11T12:30:12.016Z,19.37
2019-01-11T12:32:40.606Z,22.80
2019-01-11T12:35:09.276Z,21.07
2019-01-11T12:37:37.906Z,18.20
2019-01-11T12:40:11.766Z,19.80
2019-01-11T12:42:40.306Z,18.50
2019-01-11T12:45:11.723Z,20.63
2019-01-11T12:47:40.377Z,20.57
2019-01-11T12:50:12.364Z,18.50
2019-01-11T12:52:40.980Z,24.70
2019-01-11T12:55:09.581Z,25.13
2019-01-11T12:57:38.354Z,20.83
2019-01-11T13:00:10.214Z,20.67
2019-01-11T13:02:38.870Z,20.37
2019-01-11T13:05:10.254Z,22.40
2019-01-11T13:07:38.961Z,22.03
2019-01-11T13:10:10.956Z,22.23
2019-01-11T13:12:39.650Z,19.07
2019-01-11T13:15:11.573Z,21.20
2019-01-11T13:17:40.285Z,17.97
2019-01-11T13:20:12.255Z,16.90
2019-01-11T13:22:43.413Z,18.97
2019-01-11T13:25:12.151Z,17.67
2019-01-11T13:27:40.851Z,18.03
2019-01-11T13:30:13.068Z,18.00
2019-01-11T13:32:41.729Z,17.33
2019-01-11T13:35:10.462Z,17.73
2019-01-11T13:37:39.444Z,18.70
2019-01-11T13:40:13.743Z,19.00
2019-01-11T13:42:42.421Z,15.77
2019-01-11T13:45:11.661Z,17.80
2019-01-11T13:47:43.278Z,16.63
2019-01-11T13:50:14.987Z,19.33
2019-01-11T13:52:46.836Z,16.73
2019-01-11T13:55:15.527Z,15.13
2019-01-11T13:57:44.228Z,16.10
2019-01-11T14:00:14.752Z,16.20
2019-01-11T14:02:43.631Z,18.07
2019-01-11T14:05:13.563Z,14.63
2019-01-11T14:07:42.506Z,14.50
2019-01-11T14:10:11.098Z,13.23
2019-01-11T14:12:41.056Z,14.23
2019-01-11T14:15:11.767Z,11.40
2019-01-11T14:17:40.350Z,11.33
2019-01-11T14:20:11.027Z,12.63
2019-01-11T14:22:39.640Z,11.50
2019-01-11T14:25:10.822Z,10.87
2019-01-11T14:27:39.504Z,9.10
2019-01-11T14:30:19.586Z,10.43
2019-01-11T14:32:48.637Z,10.57
2019-01-11T14:35:17.226Z,13.33
2019-01-11T14:37:45.912Z,11.93
2019-01-11T14:40:16.682Z,11.23
2019-01-11T14:42:46.428Z,12.87
2019-01-11T14:45:16.961Z,13.97
2019-01-11T14:47:46.790Z,10.40
2019-01-11T14:50:17.872Z,9.47
2019-01-11T14:52:46.922Z,10.43
2019-01-11T14:55:15.592Z,10.17
2019-01-11T14:57:44.174Z,12.83
2019-01-11T15:00:21.354Z,12.23
2019-01-11T15:02:50.373Z,13.30
2019-01-11T15:05:19.932Z,11.10
2019-01-11T15:07:49.014Z,13.13
2019-01-11T15:10:17.733Z,11.70
2019-01-11T15:12:47.746Z,14.63
2019-01-11T15:15:16.485Z,19.97
2019-01-11T15:17:45.127Z,13.77
2019-01-11T15:20:15.901Z,14.30
2019-01-11T15:22:44.653Z,14.63
2019-01-11T15:25:13.427Z,13.07
2019-01-11T15:27:41.994Z,12.90
2019-01-11T15:30:18.187Z,13.60
2019-01-11T15:32:46.829Z,14.83
2019-01-11T15:35:15.592Z,12.77
2019-01-11T15:37:44.624Z,14.57
2019-01-11T15:40:16.628Z,15.60
2019-01-11T15:42:45.220Z,15.77
2019-01-11T15:45:14.111Z,13.23
2019-01-11T15:47:42.716Z,13.50
2019-01-11T15:50:31.009Z,21.17
2019-01-11T15:52:59.732Z,11.70
2019-01-11T15:55:28.336Z,15.57
2019-01-11T15:57:56.926Z,12.17
2019-01-11T16:00:25.560Z,13.00
2019-01-11T16:02:54.116Z,13.73
2019-01-11T16:05:22.836Z,13.40
2019-01-11T16:07:51.418Z,13.33
2019-01-11T16:10:21.152Z,12.27
2019-01-11T16:12:50.706Z,11.57
2019-01-11T16:15:34.685Z,14.17
2019-01-11T16:18:06.372Z,11.97
2019-01-11T16:20:35.860Z,13.70
2019-01-11T16:23:04.565Z,12.80
2019-01-11T16:25:33.614Z,14.47
2019-01-11T16:28:02.572Z,13.90
2019-01-11T16:30:31.171Z,12.83
2019-01-11T16:32:59.795Z,13.67
2019-01-11T16:35:28.728Z,11.73
2019-01-11T16:37:57.332Z,14.80
2019-01-11T16:40:26.002Z,14.43
2019-01-11T16:42:54.572Z,12.63
2019-01-11T16:45:23.185Z,13.53
2019-01-11T16:47:51.805Z,12.13
2019-01-11T16:50:21.115Z,10.83
2019-01-11T16:52:49.692Z,14.20
2019-01-11T16:55:18.317Z,11.77
2019-01-11T16:57:46.923Z,14.37
2019-01-11T17:00:23.489Z,16.57
2019-01-11T17:02:52.123Z,11.33
2019-01-11T17:05:20.703Z,12.63
2019-01-11T17:07:49.314Z,14.50
2019-01-11T17:10:17.866Z,15.80
2019-01-11T17:12:46.505Z,15.77
2019-01-11T17:15:18.163Z,11.17
2019-01-11T17:17:46.766Z,12.60
2019-01-11T17:20:17.074Z,14.67
2019-01-11T17:22:45.751Z,10.13
2019-01-11T17:25:14.394Z,10.50
2019-01-11T17:27:43.142Z,10.90
2019-01-11T17:30:16.718Z,7.67
2019-01-11T17:32:45.364Z,10.73
2019-01-11T17:35:13.905Z,8.20
2019-01-11T17:37:42.506Z,9.90
2019-01-11T17:40:12.230Z,7.90
2019-01-11T17:42:40.838Z,8.80
2019-01-11T17:45:11.809Z,5.87
2019-01-11T17:47:40.396Z,8.20
2019-01-11T17:50:14.062Z,10.90
2019-01-11T17:52:43.451Z,10.73
2019-01-11T17:55:12.201Z,12.20
2019-01-11T17:57:41.543Z,6.80
2019-01-11T18:00:13.128Z,4.57
2019-01-11T18:02:41.801Z,8.50
2019-01-11T18:05:12.409Z,10.93
2019-01-11T18:07:41.418Z,4.80
2019-01-11T18:10:11.286Z,3.93
2019-01-11T18:12:40.234Z,5.30
2019-01-11T18:15:11.818Z,6.20
2019-01-11T18:17:40.403Z,8.50
2019-01-11T18:20:12.336Z,9.83
2019-01-11T18:22:40.994Z,7.27
2019-01-11T18:25:09.646Z,6.73
2019-01-11T18:27:38.640Z,6.43
2019-01-11T18:30:10.619Z,9.60
2019-01-11T18:32:39.237Z,7.80
2019-01-11T18:35:07.934Z,7.10
2019-01-11T18:37:36.699Z,7.60
2019-01-11T18:40:13.623Z,6.83
2019-01-11T18:42:42.234Z,5.07
2019-01-11T18:45:10.947Z,8.00
2019-01-11T18:47:39.579Z,10.43
2019-01-11T18:50:15.029Z,10.30
2019-01-11T18:52:43.643Z,4.60
2019-01-11T18:55:12.370Z,12.97
2019-01-11T18:57:41.043Z,11.40
2019-01-11T19:00:18.672Z,9.87
2019-01-11T19:02:47.417Z,14.10
2019-01-11T19:05:16.436Z,10.90
2019-01-11T19:07:46.224Z,7.10
2019-01-11T19:10:17.152Z,5.00
2019-01-11T19:12:46.119Z,7.30
2019-01-11T19:15:17.243Z,12.73
2019-01-11T19:17:46.370Z,12.90
2019-01-11T19:20:17.523Z,10.87
2019-01-11T19:22:46.241Z,12.57
2019-01-11T19:25:24.054Z,8.70
2019-01-11T19:27:52.824Z,11.57
2019-01-11T19:30:26.365Z,7.63
2019-01-11T19:32:55.431Z,13.87
2019-01-11T19:35:24.209Z,16.13
2019-01-11T19:37:52.818Z,10.60
2019-01-11T19:40:21.456Z,13.90
2019-01-11T19:42:50.036Z,12.87
2019-01-11T19:45:18.714Z,12.70
2019-01-11T19:47:47.366Z,15.10
2019-01-11T19:50:18.109Z,14.43
2019-01-11T19:52:47.631Z,15.07
2019-01-11T19:55:18.005Z,14.57
2019-01-11T19:57:46.583Z,20.83
2019-01-11T20:00:17.997Z,23.23
2019-01-11T20:02:47.120Z,19.17
2019-01-11T20:05:16.174Z,19.03
2019-01-11T20:07:44.742Z,18.30
2019-01-11T20:10:19.105Z,19.47
2019-01-11T20:12:47.678Z,18.93
2019-01-11T20:15:16.350Z,12.47
2019-01-11T20:17:45.034Z,21.43
2019-01-11T20:20:14.870Z,19.60
2019-01-11T20:22:43.739Z,21.20
2019-01-11T20:25:17.463Z,15.63
2019-01-11T20:27:46.879Z,15.90
2019-01-11T20:30:18.057Z,20.53
2019-01-11T20:32:46.886Z,19.63
2019-01-11T20:35:15.910Z,16.30
2019-01-11T20:37:44.607Z,20.33
2019-01-11T20:40:15.267Z,15.23
2019-01-11T20:42:45.057Z,29.37
2019-01-11T20:45:18.455Z,29.70
2019-01-11T20:47:47.035Z,21.67
2019-01-11T20:50:18.255Z,18.37
2019-01-11T20:52:47.694Z,22.47
2019-01-11T20:55:16.438Z,22.93
2019-01-11T20:57:45.446Z,21.03
2019-01-11T21:00:17.800Z,28.07
2019-01-11T21:02:46.524Z,28.20
2019-01-11T21:05:15.778Z,23.17
2019-01-11T21:07:44.445Z,21.10
2019-01-11T21:10:14.951Z,19.47
2019-01-11T21:12:43.594Z,23.83
2019-01-11T21:15:15.102Z,19.10
2019-01-11T21:17:43.756Z,23.90
2019-01-11T21:20:15.098Z,26.70
2019-01-11T21:22:44.340Z,26.97
2019-01-11T21:25:15.454Z,37.47
2019-01-11T21:27:44.129Z,28.37
2019-01-11T21:30:24.748Z,23.97
2019-01-11T21:32:53.634Z,33.60
2019-01-11T21:35:22.697Z,39.23
2019-01-11T21:37:51.626Z,31.97
2019-01-11T21:40:21.029Z,25.30
2019-01-11T21:42:50.150Z,33.43
2019-01-11T21:45:19.171Z,26.50
2019-01-11T21:47:47.889Z,20.60
2019-01-11T21:50:18.616Z,27.53
2019-01-11T21:52:47.314Z,41.10
2019-01-11T21:55:16.266Z,31.53
2019-01-11T21:57:45.620Z,29.97
2019-01-11T22:00:17.338Z,24.87
2019-01-11T22:02:46.296Z,33.47
2019-01-11T22:05:15.020Z,28.40
2019-01-11T22:07:43.655Z,27.87
2019-01-11T22:10:14.860Z,36.53
2019-01-11T22:12:43.449Z,33.60
2019-01-11T22:15:15.167Z,32.57
2019-01-11T22:17:44.063Z,28.23
2019-01-11T22:20:15.019Z,37.13
2019-01-11T22:22:44.066Z,37.20
2019-01-11T22:25:16.735Z,36.27
2019-01-11T22:27:46.361Z,32.00
2019-01-11T22:30:20.489Z,40.33
2019-01-11T22:32:49.140Z,36.97
2019-01-11T22:35:18.508Z,35.73
2019-01-11T22:37:47.652Z,39.43
2019-01-11T22:40:18.261Z,36.07
2019-01-11T22:42:47.738Z,30.40
2019-01-11T22:45:16.331Z,28.33
2019-01-11T22:47:45.035Z,34.70
2019-01-11T22:50:16.675Z,35.97
2019-01-11T22:52:45.337Z,28.30
2019-01-11T22:55:16.458Z,33.63
2019-01-11T22:57:45.145Z,28.37
2019-01-11T23:00:45.748Z,33.53
2019-01-11T23:03:26.614Z,38.33
2019-01-11T23:06:01.019Z,37.33
2019-01-11T23:08:29.627Z,33.07
2019-01-11T23:11:12.542Z,35.30
2019-01-11T23:13:41.138Z,35.57
2019-01-11T23:16:12.702Z,34.20
2019-01-11T23:18:41.354Z,34.47
2019-01-11T23:21:10.100Z,35.03
2019-01-11T23:23:38.686Z,37.77
2019-01-11T23:26:07.320Z,35.43
2019-01-11T23:28:35.959Z,23.37
2019-01-11T23:31:04.860Z,40.13
2019-01-11T23:33:33.463Z,27.67
2019-01-11T23:36:02.314Z,34.13
2019-01-11T23:38:31.302Z,31.90
2019-01-11T23:40:59.871Z,36.80
2019-01-11T23:43:28.806Z,41.47
2019-01-11T23:45:57.429Z,40.80
2019-01-11T23:48:26.591Z,33.33
2019-01-11T23:50:55.488Z,33.17
2019-01-11T23:53:24.094Z,39.43
2019-01-11T23:55:52.693Z,31.60
2019-01-11T23:58:21.870Z,34.27
